メインページ
METAR-TAF:

METAR-TAF

空港 :

レイキャヴィーク空港

レイキャヴィーク, アイスランド

緯度: 64-08N, 経度: 021-54W, 海抜: 54m

現時点の気象観測

当レポートは27分前の12:00(UTC)に作成
の風 18kt
気温 5°C
湿度 60%
気圧 1001 hPa
視程10km以上
高度4000ftの雲はほとんどない
高度14000ftの千切れ雲あり
高度20000ftの曇り
近辺でにわか雨

METAR: BIRK 161200Z 08018KT 9999 VCSH FEW040 BKN140 OVC200 05/M02 Q1001

時間: 12:27 (12:27 UTC)

予報

当レポートは1時間33分前の10:54(UTC)に作成
予報は16日の 12時(UTC)から 17日の 12時(UTC)まで有効
の風 20kt、最大30ktの突風を伴う
視程10km以上
高度1200ftの雲は散在している
高度2500ftの千切れ雲あり
16日の 14時(UTC)から 16日の 16時(UTC)まで徐々に
東/南東の風 35kt、最大50ktの突風を伴う
視程: 5000m
高度1500ftの千切れ雲あり
高度2500ftの曇り
雨, 霧雨
16日の 21時(UTC)から 16日の 23時(UTC)まで徐々に
南東の風 30kt、最大43ktの突風を伴う

TAF: BIRK 161054Z 1612/1712 09020G30KT 9999 SCT012 BKN025 TX11/1712Z TN04/1612Z BECMG 1614/1616 11035G50KT 5000 RADZ BKN015 OVC025 BECMG 1621/1623 13030G43KT

4,000以上の空港の気象観測と天気予報(METAR報とTAF報)

利用可能な観測所は地図上に黄色い丸と赤い丸で示す。

丸の上にカーソルを重ねると観測所名を参照できる。

次にクリックすると気象観測と天気予報を参照できる。

マップの切り替え:黒色「×」印の緑ボタンをクリックして拡大、「-」印の緑ボタンをクリックして縮小、緑色の三角印をクリックして隣りの地図に切り替え


METAR-TAF: